EET,Max TemperatureF,Mean TemperatureF,Min TemperatureF,Max Dew PointF,MeanDew PointF,Min DewpointF,Max Humidity, Mean Humidity, Min Humidity, Max Sea Level PressureIn, Mean Sea Level PressureIn, Min Sea Level PressureIn, Max VisibilityMiles, Mean VisibilityMiles, Min VisibilityMiles, Max Wind SpeedMPH, Mean Wind SpeedMPH, Max Gust SpeedMPH,PrecipitationIn, CloudCover, Events, WindDirDegrees
2013-3-1,81,70,58,50,44,37,72,41,19,29.98,29.95,29.89,6,6,6,25,18,,0.00,,,335
2013-3-2,92,74,57,58,41,25,73,35,12,29.98,29.92,29.89,6,6,6,14,8,,0.00,,,1
2013-3-3,86,72,59,72,64,54,94,73,56,29.92,29.86,29.80,6,6,6,14,5,,0.00,,,134
2013-3-4,86,74,62,66,52,39,100,56,23,29.95,29.90,29.86,6,5,5,26,14,,0.00,,,328
2013-3-5,77,68,59,54,45,37,72,45,22,30.04,29.97,29.92,6,5,4,32,18,,0.00,,,317
2013-3-6,75,65,55,55,46,37,77,50,27,30.14,30.07,30.04,6,6,6,26,20,,0.00,,,324
2013-3-7,82,68,54,54,46,39,72,48,26,30.11,30.03,29.95,6,6,6,15,10,,0.00,,,332
2013-3-8,84,68,53,64,55,44,88,64,32,29.92,29.85,29.77,6,6,6,14,4,,0.00,,,157
2013-3-9,84,74,64,55,39,28,60,28,11,29.95,29.87,29.80,6,4,4,25,18,,0.00,,,334
2013-3-10,84,72,60,55,44,33,77,36,18,30.04,29.98,29.95,6,6,6,20,15,,0.00,,,326
2013-3-11,94,78,63,57,48,41,60,38,17,30.06,30.00,29.95,6,6,6,14,8,,0.00,,,355
2013-3-12,91,74,57,66,51,35,73,43,21,30.01,29.94,29.89,6,6,6,9,3,,0.00,,,134
2013-3-13,93,76,60,64,56,50,83,52,21,29.92,29.87,29.83,6,6,6,12,4,,0.00,,,147
2013-3-14,94,77,60,68,54,18,78,48,18,29.89,29.84,29.80,6,5,5,9,4,,0.00,,,102
2013-3-15,91,77,63,73,67,54,94,70,43,29.83,29.79,29.74,6,4,4,12,6,,0.00,3,,133
2013-3-16,83,77,71,74,59,43,94,56,23,29.89,29.81,29.74,5,4,2,32,14,,0.00,6,,345
2013-3-17,78,69,60,52,42,39,64,38,19,30.01,29.96,29.92,6,4,2,32,19,,0.00,,,337
2013-3-18,75,66,56,52,46,39,67,47,35,30.05,29.97,29.89,6,6,6,25,20,,0.00,,,336
2013-3-19,80,68,56,54,46,37,59,43,26,29.90,29.84,29.77,6,6,6,18,12,,0.00,,,329
2013-3-20,83,72,61,59,47,37,63,41,26,29.92,29.87,29.80,6,6,6,25,17,,0.00,,,341
2013-3-21,94,77,60,62,50,41,69,43,13,29.95,29.88,29.83,6,6,6,12,9,,0.00,,,7
2013-3-22,93,76,59,63,50,37,60,37,21,29.83,29.76,29.68,6,2,0,29,7,,0.00,,,103
2013-3-23,82,73,64,50,45,37,56,37,19,29.92,29.88,29.83,6,2,1,25,20,,0.00,,,340
2013-3-24,82,70,59,55,47,36,68,44,13,30.01,29.96,29.92,6,6,6,31,17,,0.00,,,336
2013-3-25,89,72,56,50,43,36,48,35,18,30.02,29.95,29.89,6,6,6,16,9,,0.00,,,347
2013-3-26,93,75,57,63,41,23,51,31,15,29.89,29.82,29.74,6,6,6,14,3,,0.00,,,150
2013-3-27,86,75,64,61,42,34,73,32,8,29.95,29.89,29.80,6,5,4,29,17,,0.00,,,338
2013-3-28,87,74,61,61,43,34,61,33,13,29.99,29.93,29.86,6,6,6,17,13,,0.00,,,338
2013-3-29,92,76,61,61,44,36,57,31,10,29.95,29.89,29.83,6,6,6,16,12,,0.00,,,333
2013-3-30,95,80,65,54,42,34,37,27,14,29.89,29.85,29.80,6,6,6,13,8,,0.00,,,343
2013-3-31,90,76,61,72,58,34,94,56,20,29.87,29.83,29.80,6,6,6,14,6,,0.00,,,135